Time;durP1;ratioP1;P1;durP2;ratioP2;P2;SDS_P1;SDS_P2;PMS_P1;PMS_P2;Temp;Humidity;BMP_temperature;BMP_pressure;BME280_temperature;BME280_humidity;BME280_pressure;Samples;Min_cycle;Max_cycle;Signal;HPM_P1;HPM_P2
2023/01/08 00:05:11;;;;;;;;;;;;;;;10.86;79.49;100505.41;20889887;28;19931;-64
2023/01/08 00:15:33;;;;;;;;;;;;;;;10.85;80.65;100488.19;20897189;28;20350;-64
2023/01/08 00:25:54;;;;;;;;;;;;;;;10.81;78.50;100481.44;20909667;28;20391;-64
2023/01/08 00:36:17;;;;;;;;;;;;;;;10.97;80.39;100481.69;20909278;28;19929;-64
2023/01/08 00:46:38;;;;;;;;;;;;;;;10.95;81.35;100462.81;20909430;28;19928;-64
2023/01/08 00:57:00;;;;;;;;;;;;;;;10.91;81.81;100451.72;20891870;28;19925;-64
2023/01/08 01:07:21;;;;;;;;;;;;;;;10.91;82.62;100451.72;20912721;28;19928;-64
2023/01/08 01:17:44;;;;;;;;;;;;;;;10.98;82.03;100437.66;20897813;28;20028;-64
2023/01/08 01:28:05;;;;;;;;;;;;;;;10.99;82.60;100433.31;20910209;28;19925;-64
2023/01/08 01:38:26;;;;;;;;;;;;;;;10.95;82.75;100416.22;20922088;28;19925;-64
2023/01/08 01:48:50;;;;;;;;;;;;;;;11.02;83.05;100426.25;20918894;28;19970;-64
2023/01/08 01:59:12;;;;;;;;;;;;;;;10.99;83.38;100413.44;20899551;22;19979;-59
2023/01/08 02:09:42;;;;;;;;;;;;;;;10.89;83.76;100396.59;20810879;28;19933;-59
2023/01/08 02:20:10;;;;;;;;;;;;;;;10.81;84.01;100405.53;20752997;28;20331;-59
2023/01/08 02:30:31;;;;;;;;;;;;;;;10.78;84.75;100397.91;20776788;28;19951;-60
2023/01/08 02:40:55;;;;;;;;;;;;;;;10.75;84.88;100393.66;20772418;28;20028;-60
2023/01/08 02:51:23;;;;;;;;;;;;;;;10.81;84.52;100398.63;20779203;28;20365;-60
2023/01/08 03:01:45;;;;;;;;;;;;;;;10.87;84.74;100392.38;20766710;28;19936;-60
2023/01/08 03:12:20;;;;;;;;;;;;;;;10.86;84.77;100395.84;20769148;28;20019;-60
2023/01/08 03:22:43;;;;;;;;;;;;;;;10.89;85.04;100391.41;20770637;28;19929;-59
2023/01/08 03:33:07;;;;;;;;;;;;;;;10.93;85.15;100392.97;20781550;28;20328;-59
2023/01/08 03:43:29;;;;;;;;;;;;;;;10.88;84.83;100389.72;20775581;28;20470;-60
2023/01/08 03:53:53;;;;;;;;;;;;;;;10.89;85.00;100370.72;20773065;28;19926;-60
2023/01/08 04:04:14;;;;;;;;;;;;;;;10.91;84.63;100374.06;20768008;28;19975;-60
2023/01/08 04:14:36;;;;;;;;;;;;;;;10.95;84.71;100360.09;20770933;28;19930;-60
2023/01/08 04:24:57;;;;;;;;;;;;;;;10.94;84.59;100360.16;20767084;28;20358;-59
2023/01/08 04:35:18;;;;;;;;;;;;;;;10.97;84.88;100347.09;20769355;28;19928;-59
2023/01/08 04:45:40;;;;;;;;;;;;;;;10.95;84.69;100354.91;20768247;28;19929;-60
2023/01/08 04:56:05;;;;;;;;;;;;;;;10.98;84.79;100331.53;20766347;28;19926;-60
2023/01/08 05:06:27;;;;;;;;;;;;;;;10.94;85.35;100332.53;20753014;28;19960;-59
2023/01/08 05:16:49;;;;;;;;;;;;;;;10.92;85.28;100329.16;20763527;28;19986;-59
2023/01/08 05:27:10;;;;;;;;;;;;;;;10.89;85.37;100321.53;20765958;28;19929;-59
2023/01/08 05:37:35;;;;;;;;;;;;;;;10.89;84.98;100324.13;20763736;28;19925;-59
2023/01/08 05:47:57;;;;;;;;;;;;;;;10.81;85.75;100314.94;20760188;28;19933;-60
2023/01/08 05:58:18;;;;;;;;;;;;;;;10.77;85.27;100303.88;20759536;28;19999;-60
2023/01/08 06:08:39;;;;;;;;;;;;;;;10.79;86.58;100291.72;20763825;28;19978;-59
2023/01/08 06:19:01;;;;;;;;;;;;;;;10.69;88.28;100285.25;20795628;28;20023;-59
2023/01/08 06:29:22;;;;;;;;;;;;;;;10.65;89.11;100294.00;20790567;28;19930;-59
2023/01/08 06:39:44;;;;;;;;;;;;;;;10.49;90.79;100311.03;20776667;28;19929;-59
2023/01/08 06:50:05;;;;;;;;;;;;;;;10.37;91.46;100301.13;20763517;28;19926;-58
2023/01/08 07:00:27;;;;;;;;;;;;;;;10.29;91.49;100305.78;20774070;28;19929;-58
2023/01/08 07:10:48;;;;;;;;;;;;;;;10.24;92.03;100296.50;20769356;28;19930;-59
2023/01/08 07:21:10;;;;;;;;;;;;;;;10.19;92.46;100299.25;20763620;28;19975;-59
2023/01/08 07:31:32;;;;;;;;;;;;;;;10.14;92.53;100291.63;20781311;28;20153;-59
2023/01/08 07:41:53;;;;;;;;;;;;;;;10.04;91.45;100302.34;20753061;28;19939;-59
2023/01/08 07:52:14;;;;;;;;;;;;;;;9.98;90.60;100310.34;20766431;28;19979;-59
2023/01/08 08:02:36;;;;;;;;;;;;;;;10.00;90.06;100313.69;20769730;28;19925;-59
2023/01/08 08:12:57;;;;;;;;;;;;;;;10.02;89.63;100312.75;20759063;28;20313;-59
2023/01/08 08:23:19;;;;;;;;;;;;;;;10.05;90.03;100298.88;20758303;28;19976;-59
2023/01/08 08:33:40;;;;;;;;;;;;;;;10.02;89.24;100298.97;20759028;28;19952;-59
2023/01/08 08:44:01;;;;;;;;;;;;;;;10.03;89.32;100308.44;20761550;28;19982;-59
2023/01/08 08:54:23;;;;;;;;;;;;;;;10.02;88.66;100286.03;20753354;28;19937;-59
2023/01/08 09:04:44;;;;;;;;;;;;;;;10.02;88.03;100276.56;20770776;28;19948;-59
2023/01/08 09:15:06;;;;;;;;;;;;;;;10.02;87.17;100286.03;20769261;28;19925;-58
2023/01/08 09:25:28;;;;;;;;;;;;;;;9.98;87.49;100289.66;20776584;28;19929;-58
2023/01/08 09:35:49;;;;;;;;;;;;;;;9.92;87.18;100280.41;20758098;28;19929;-58
2023/01/08 09:46:11;;;;;;;;;;;;;;;9.93;86.56;100287.22;20764322;28;20455;-59
2023/01/08 09:56:34;;;;;;;;;;;;;;;9.98;87.75;100279.31;20781532;28;19925;-55
2023/01/08 10:07:10;;;;;;;;;;;;;;;10.07;87.20;100284.16;20758228;28;19933;-57
2023/01/08 10:17:35;;;;;;;;;;;;;;;10.16;86.02;100272.66;20788579;28;19949;-58
2023/01/08 10:27:57;;;;;;;;;;;;;;;10.26;83.35;100266.22;20785300;28;19928;-58
2023/01/08 10:38:24;;;;;;;;;;;;;;;10.29;83.13;100254.06;20769945;28;19929;-58
2023/01/08 10:48:49;;;;;;;;;;;;;;;10.34;81.60;100231.44;20774056;28;19929;-58
2023/01/08 10:59:20;;;;;;;;;;;;;;;10.41;81.68;100230.28;20771109;28;19930;-57
2023/01/08 11:09:46;;;;;;;;;;;;;;;10.50;80.82;100217.00;20757137;28;20008;-58
2023/01/08 11:20:17;;;;;;;;;;;;;;;10.53;81.46;100216.06;20777195;28;19955;-60
2023/01/08 11:30:39;;;;;;;;;;;;;;;10.72;79.75;100209.22;20788081;28;19926;-61
2023/01/08 11:41:21;;;;;;;;;;;;;;;10.65;79.77;100190.53;20756861;28;19928;-60
2023/01/08 11:52:03;;;;;;;;;;;;;;;10.80;75.92;100168.34;20782504;28;20348;-61
2023/01/08 12:02:40;;;;;;;;;;;;;;;10.81;76.72;100164.84;20791822;28;20016;-61
2023/01/08 12:13:14;;;;;;;;;;;;;;;10.88;76.85;100161.09;20769401;28;19931;-61
2023/01/08 12:23:47;;;;;;;;;;;;;;;10.82;77.41;100146.66;20775946;28;20323;-61
2023/01/08 12:34:15;;;;;;;;;;;;;;;10.89;75.00;100132.59;20769537;28;19925;-60
2023/01/08 12:44:38;;;;;;;;;;;;;;;10.77;77.51;100125.31;20764908;28;19986;-62
2023/01/08 12:55:21;;;;;;;;;;;;;;;10.71;77.32;100120.38;20761173;28;19976;-62
2023/01/08 13:05:43;;;;;;;;;;;;;;;10.71;76.68;100122.97;20755391;28;20296;-62
2023/01/08 13:16:05;;;;;;;;;;;;;;;10.69;76.07;100119.63;20751695;28;20079;-62
2023/01/08 13:26:29;;;;;;;;;;;;;;;10.76;76.97;100105.53;20763390;28;19933;-60
2023/01/08 13:36:55;;;;;;;;;;;;;;;10.74;79.08;100078.88;20757579;28;20309;-62
2023/01/08 13:47:24;;;;;;;;;;;;;;;10.78;78.58;100067.50;20781381;28;19925;-63
2023/01/08 13:57:48;;;;;;;;;;;;;;;10.79;78.91;100066.56;20777074;28;19933;-61
2023/01/08 14:08:20;;;;;;;;;;;;;;;10.78;80.40;100057.16;20776930;28;19929;-61
2023/01/08 14:18:45;;;;;;;;;;;;;;;10.78;80.16;100040.78;20714240;22;19976;-68
2023/01/08 14:29:20;;;;;;;;;;;;;;;10.75;81.42;100033.97;20704366;28;19961;-68
2023/01/08 14:39:42;;;;;;;;;;;;;;;10.70;80.28;100032.47;20713489;28;19926;-68
2023/01/08 14:50:04;;;;;;;;;;;;;;;10.67;82.19;100030.03;20694301;28;20024;-69
2023/01/08 15:00:27;;;;;;;;;;;;;;;10.55;83.03;100023.63;20725479;28;19929;-69
2023/01/08 15:11:01;;;;;;;;;;;;;;;10.47;84.34;100020.56;20721304;28;19930;-67
2023/01/08 15:21:22;;;;;;;;;;;;;;;10.22;86.63;100019.88;20717237;28;20385;-67
2023/01/08 15:31:46;;;;;;;;;;;;;;;10.13;87.73;100012.50;20694599;28;19933;-69
2023/01/08 15:53:11;;;;;;;;;;;;;;;9.95;88.58;99997.72;20717053;28;20311;-68
2023/01/08 16:03:33;;;;;;;;;;;;;;;9.95;89.09;99993.41;20719696;28;20300;-69
2023/01/08 16:13:54;;;;;;;;;;;;;;;9.93;89.32;99996.94;20699803;28;19952;-68
2023/01/08 16:24:16;;;;;;;;;;;;;;;9.91;88.69;99998.75;20714457;28;19984;-71
2023/01/08 16:34:37;;;;;;;;;;;;;;;9.90;88.75;99991.91;20719345;28;20039;-71
2023/01/08 16:44:58;;;;;;;;;;;;;;;9.93;88.61;99981.44;20715183;28;19937;-71
2023/01/08 16:55:20;;;;;;;;;;;;;;;9.78;88.07;99966.56;20715965;28;19933;-71
2023/01/08 17:05:41;;;;;;;;;;;;;;;9.65;87.56;99968.00;20707565;28;19926;-71
2023/01/08 17:16:06;;;;;;;;;;;;;;;9.56;87.91;99961.44;20698560;28;21537;-72
2023/01/08 17:26:27;;;;;;;;;;;;;;;9.44;87.69;99964.50;20726319;28;19929;-72
2023/01/08 17:36:49;;;;;;;;;;;;;;;9.39;87.76;99950.09;20701830;28;19995;-68
2023/01/08 17:47:11;;;;;;;;;;;;;;;9.25;88.54;99960.13;20701004;28;20039;-70
2023/01/08 17:57:32;;;;;;;;;;;;;;;9.14;88.56;99963.94;20696866;28;19936;-70
2023/01/08 18:07:53;;;;;;;;;;;;;;;9.11;88.65;99969.22;20691853;28;19929;-68
2023/01/08 18:18:15;;;;;;;;;;;;;;;8.96;88.68;99968.97;20711983;28;20102;-71
2023/01/08 18:28:36;;;;;;;;;;;;;;;8.90;88.63;99949.38;20693359;28;20315;-68
2023/01/08 18:38:59;;;;;;;;;;;;;;;8.76;87.95;99949.06;20716853;28;19925;-68
2023/01/08 18:49:22;;;;;;;;;;;;;;;8.69;87.76;99939.88;20730507;28;19930;-69
2023/01/08 18:59:43;;;;;;;;;;;;;;;8.54;87.76;99924.97;20707500;28;19979;-68
2023/01/08 19:10:05;;;;;;;;;;;;;;;8.50;88.34;99918.22;20725409;28;19976;-67
2023/01/08 19:20:26;;;;;;;;;;;;;;;8.39;88.27;99915.19;20740097;28;19930;-67
2023/01/08 19:30:58;;;;;;;;;;;;;;;8.23;87.88;99888.25;20723669;28;19939;-68
2023/01/08 19:51:59;;;;;;;;;;;;;;;8.05;88.83;99868.31;20718005;28;19933;-68
2023/01/08 20:02:21;;;;;;;;;;;;;;;8.00;88.88;99855.56;20697693;28;19999;-71
2023/01/08 20:12:42;;;;;;;;;;;;;;;7.97;88.78;99845.38;20707062;28;19929;-70
2023/01/08 20:23:04;;;;;;;;;;;;;;;7.84;88.48;99838.13;20744926;22;19933;-65
2023/01/08 20:33:25;;;;;;;;;;;;;;;7.68;88.94;99827.53;20819375;28;19929;-63
2023/01/08 20:43:47;;;;;;;;;;;;;;;7.63;90.11;99808.00;20835998;28;20014;-63
2023/01/08 20:54:10;;;;;;;;;;;;;;;7.54;89.83;99800.59;20817921;28;19994;-63
2023/01/08 21:04:32;;;;;;;;;;;;;;;7.51;90.00;99787.84;20818408;28;19931;-65
2023/01/08 21:14:53;;;;;;;;;;;;;;;7.46;89.96;99784.56;20799242;28;19955;-66
2023/01/08 21:25:15;;;;;;;;;;;;;;;7.39;90.24;99783.09;20836487;28;19929;-66
2023/01/08 21:35:37;;;;;;;;;;;;;;;7.33;90.38;99765.28;20832788;28;19928;-64
2023/01/08 21:46:00;;;;;;;;;;;;;;;7.30;89.94;99737.94;20849438;28;19932;-65
2023/01/08 21:56:21;;;;;;;;;;;;;;;7.28;90.56;99724.28;20826572;28;19929;-63
2023/01/08 22:06:43;;;;;;;;;;;;;;;7.28;90.32;99714.00;20852168;28;19932;-64
2023/01/08 22:17:07;;;;;;;;;;;;;;;7.19;90.93;99698.03;20843652;28;19976;-64
2023/01/08 22:27:29;;;;;;;;;;;;;;;7.22;90.38;99678.19;20847059;28;20383;-67
2023/01/08 22:37:50;;;;;;;;;;;;;;;7.23;90.54;99668.75;20846615;28;19979;-64
2023/01/08 22:48:11;;;;;;;;;;;;;;;7.21;91.36;99649.94;20840919;28;19929;-64
2023/01/08 22:58:33;;;;;;;;;;;;;;;7.29;90.11;99647.97;20837979;28;19925;-64
2023/01/08 23:08:54;;;;;;;;;;;;;;;7.25;91.13;99642.09;20837469;28;20005;-64
2023/01/08 23:19:16;;;;;;;;;;;;;;;7.32;90.51;99617.81;20843438;28;20537;-63
2023/01/08 23:29:37;;;;;;;;;;;;;;;7.33;89.71;99598.03;20850391;28;19925;-64
2023/01/08 23:39:59;;;;;;;;;;;;;;;7.37;90.27;99591.91;20851743;28;19925;-63
2023/01/08 23:50:20;;;;;;;;;;;;;;;7.36;90.50;99588.47;20860581;28;19933;-64
